sensor_id;sensor_type;location;lat;lon;timestamp;pressure;altitude;pressure_sealevel;temperature;humidity
40954;BME280;26686;50.130;8.710;2024-02-04T00:01:05;101057.59;;;10.72;90.76
40954;BME280;26686;50.130;8.710;2024-02-04T00:06:09;101044.09;;;10.75;91.00
40954;BME280;26686;50.130;8.710;2024-02-04T00:11:13;101048.44;;;10.76;91.42
40954;BME280;26686;50.130;8.710;2024-02-04T00:16:15;101046.34;;;10.81;92.00
40954;BME280;26686;50.130;8.710;2024-02-04T00:21:16;101043.88;;;10.78;92.42
40954;BME280;26686;50.130;8.710;2024-02-04T00:26:18;101011.81;;;10.67;93.05
40954;BME280;26686;50.130;8.710;2024-02-04T00:31:19;101039.81;;;10.72;93.92
40954;BME280;26686;50.130;8.710;2024-02-04T00:36:20;100987.41;;;10.47;93.58
40954;BME280;26686;50.130;8.710;2024-02-04T00:41:23;101018.75;;;10.69;93.84
40954;BME280;26686;50.130;8.710;2024-02-04T00:46:24;101020.63;;;10.67;93.69
40954;BME280;26686;50.130;8.710;2024-02-04T00:51:25;101017.44;;;10.62;93.88
40954;BME280;26686;50.130;8.710;2024-02-04T00:56:27;101012.44;;;10.57;93.95
40954;BME280;26686;50.130;8.710;2024-02-04T01:01:28;100982.44;;;10.28;95.25
40954;BME280;26686;50.130;8.710;2024-02-04T01:06:30;101008.47;;;10.50;94.51
40954;BME280;26686;50.130;8.710;2024-02-04T01:11:43;101028.06;;;10.49;94.87
40954;BME280;26686;50.130;8.710;2024-02-04T01:16:45;101006.78;;;10.49;94.23
40954;BME280;26686;50.130;8.710;2024-02-04T01:21:46;101017.22;;;10.52;94.79
40954;BME280;26686;50.130;8.710;2024-02-04T01:26:48;101006.97;;;10.46;94.87
40954;BME280;26686;50.130;8.710;2024-02-04T01:31:49;101000.19;;;10.42;94.87
40954;BME280;26686;50.130;8.710;2024-02-04T01:36:50;101009.13;;;10.41;94.42
40954;BME280;26686;50.130;8.710;2024-02-04T01:41:52;101034.16;;;10.51;94.43
40954;BME280;26686;50.130;8.710;2024-02-04T01:46:53;101028.41;;;10.57;94.72
40954;BME280;26686;50.130;8.710;2024-02-04T01:51:57;101029.16;;;10.59;94.81
40954;BME280;26686;50.130;8.710;2024-02-04T01:56:59;101046.50;;;10.52;95.08
40954;BME280;26686;50.130;8.710;2024-02-04T02:02:05;101040.78;;;10.58;95.31
40954;BME280;26686;50.130;8.710;2024-02-04T02:07:09;101028.84;;;10.51;95.29
40954;BME280;26686;50.130;8.710;2024-02-04T02:12:14;101026.16;;;10.51;96.34
40954;BME280;26686;50.130;8.710;2024-02-04T02:17:24;101021.47;;;10.42;97.85
40954;BME280;26686;50.130;8.710;2024-02-04T02:22:29;101020.50;;;10.43;98.59
40954;BME280;26686;50.130;8.710;2024-02-04T02:27:31;101018.25;;;10.37;99.05
40954;BME280;26686;50.130;8.710;2024-02-04T02:32:33;101008.66;;;10.34;100.00
40954;BME280;26686;50.130;8.710;2024-02-04T02:42:43;100999.28;;;10.29;100.00
40954;BME280;26686;50.130;8.710;2024-02-04T02:47:44;100973.69;;;10.13;100.00
40954;BME280;26686;50.130;8.710;2024-02-04T02:52:47;100984.31;;;10.13;100.00
40954;BME280;26686;50.130;8.710;2024-02-04T02:57:48;100972.19;;;10.09;100.00
40954;BME280;26686;50.130;8.710;2024-02-04T03:02:50;100980.03;;;9.98;100.00
40954;BME280;26686;50.130;8.710;2024-02-04T03:07:52;100968.44;;;9.99;100.00
40954;BME280;26686;50.130;8.710;2024-02-04T03:12:53;100955.09;;;9.86;100.00
40954;BME280;26686;50.130;8.710;2024-02-04T03:17:55;100963.28;;;9.83;100.00
40954;BME280;26686;50.130;8.710;2024-02-04T03:22:56;100968.91;;;9.78;100.00
40954;BME280;26686;50.130;8.710;2024-02-04T03:27:58;100959.78;;;9.82;100.00
40954;BME280;26686;50.130;8.710;2024-02-04T03:32:59;100977.25;;;9.86;100.00
40954;BME280;26686;50.130;8.710;2024-02-04T03:38:01;100959.69;;;9.84;100.00
40954;BME280;26686;50.130;8.710;2024-02-04T03:43:03;100956.34;;;9.80;100.00
40954;BME280;26686;50.130;8.710;2024-02-04T03:48:05;100935.69;;;9.71;100.00
40954;BME280;26686;50.130;8.710;2024-02-04T03:53:07;100954.66;;;9.79;100.00
40954;BME280;26686;50.130;8.710;2024-02-04T03:58:09;100938.72;;;9.79;100.00
40954;BME280;26686;50.130;8.710;2024-02-04T04:03:11;100935.38;;;9.76;100.00
40954;BME280;26686;50.130;8.710;2024-02-04T04:08:12;100909.44;;;9.39;100.00
40954;BME280;26686;50.130;8.710;2024-02-04T04:13:14;100952.06;;;9.65;100.00
40954;BME280;26686;50.130;8.710;2024-02-04T04:18:15;100938.53;;;9.55;100.00
40954;BME280;26686;50.130;8.710;2024-02-04T04:23:17;100944.84;;;9.67;100.00
40954;BME280;26686;50.130;8.710;2024-02-04T04:28:19;100950.81;;;9.70;100.00
40954;BME280;26686;50.130;8.710;2024-02-04T04:33:20;100955.06;;;9.73;100.00
40954;BME280;26686;50.130;8.710;2024-02-04T04:38:22;100942.94;;;9.69;100.00
40954;BME280;26686;50.130;8.710;2024-02-04T04:43:23;100952.31;;;9.75;100.00
40954;BME280;26686;50.130;8.710;2024-02-04T04:48:25;100951.53;;;9.72;100.00
40954;BME280;26686;50.130;8.710;2024-02-04T04:53:26;100942.53;;;9.75;100.00
40954;BME280;26686;50.130;8.710;2024-02-04T04:58:28;100956.56;;;9.77;100.00
40954;BME280;26686;50.130;8.710;2024-02-04T05:03:30;100955.97;;;9.86;100.00
40954;BME280;26686;50.130;8.710;2024-02-04T05:08:31;100954.25;;;9.85;100.00
40954;BME280;26686;50.130;8.710;2024-02-04T05:13:33;100945.88;;;9.91;100.00
40954;BME280;26686;50.130;8.710;2024-02-04T05:18:35;100950.13;;;9.94;100.00
40954;BME280;26686;50.130;8.710;2024-02-04T05:23:37;100905.09;;;9.78;100.00
40954;BME280;26686;50.130;8.710;2024-02-04T05:28:39;100943.63;;;9.98;100.00
40954;BME280;26686;50.130;8.710;2024-02-04T05:33:40;100932.47;;;9.93;100.00
40954;BME280;26686;50.130;8.710;2024-02-04T05:38:44;100939.72;;;10.04;100.00
40954;BME280;26686;50.130;8.710;2024-02-04T05:43:46;100956.09;;;9.98;100.00
40954;BME280;26686;50.130;8.710;2024-02-04T05:48:48;100938.41;;;9.97;100.00
40954;BME280;26686;50.130;8.710;2024-02-04T05:53:51;100936.75;;;9.96;100.00
40954;BME280;26686;50.130;8.710;2024-02-04T05:58:52;100949.41;;;10.05;100.00
40954;BME280;26686;50.130;8.710;2024-02-04T06:03:54;100939.72;;;10.04;100.00
40954;BME280;26686;50.130;8.710;2024-02-04T06:08:56;100938.03;;;10.03;100.00
40954;BME280;26686;50.130;8.710;2024-02-04T06:13:57;100937.84;;;10.06;100.00
40954;BME280;26686;50.130;8.710;2024-02-04T06:18:58;100929.41;;;9.99;100.00
40954;BME280;26686;50.130;8.710;2024-02-04T06:24:01;100932.63;;;10.04;100.00
40954;BME280;26686;50.130;8.710;2024-02-04T06:29:02;100930.06;;;10.03;100.00
40954;BME280;26686;50.130;8.710;2024-02-04T06:34:03;100933.97;;;10.10;100.00
40954;BME280;26686;50.130;8.710;2024-02-04T06:39:05;100930.78;;;10.05;100.00
40954;BME280;26686;50.130;8.710;2024-02-04T06:44:12;100921.09;;;10.04;100.00
40954;BME280;26686;50.130;8.710;2024-02-04T06:49:13;100916.44;;;10.07;100.00
40954;BME280;26686;50.130;8.710;2024-02-04T06:54:20;100915.56;;;10.07;100.00
40954;BME280;26686;50.130;8.710;2024-02-04T06:59:22;100920.88;;;10.07;100.00
40954;BME280;26686;50.130;8.710;2024-02-04T07:04:23;100916.44;;;10.07;100.00
40954;BME280;26686;50.130;8.710;2024-02-04T07:09:29;100906.75;;;10.06;100.00
40954;BME280;26686;50.130;8.710;2024-02-04T07:14:30;100913.03;;;10.05;100.00
40954;BME280;26686;50.130;8.710;2024-02-04T07:19:32;100916.03;;;10.14;100.00
40954;BME280;26686;50.130;8.710;2024-02-04T07:24:33;100921.97;;;10.17;100.00
40954;BME280;26686;50.130;8.710;2024-02-04T07:29:38;100931.56;;;10.20;100.00
40954;BME280;26686;50.130;8.710;2024-02-04T07:34:39;100942.84;;;10.23;100.00
40954;BME280;26686;50.130;8.710;2024-02-04T07:39:41;100936.03;;;10.19;100.00
40954;BME280;26686;50.130;8.710;2024-02-04T07:44:43;100947.94;;;10.26;100.00
40954;BME280;26686;50.130;8.710;2024-02-04T07:49:50;100946.25;;;10.25;100.00
40954;BME280;26686;50.130;8.710;2024-02-04T07:54:51;100937.00;;;10.18;100.00
40954;BME280;26686;50.130;8.710;2024-02-04T07:59:53;100920.09;;;10.19;100.00
40954;BME280;26686;50.130;8.710;2024-02-04T08:04:54;100925.41;;;10.19;100.00
40954;BME280;26686;50.130;8.710;2024-02-04T08:09:56;100922.53;;;10.22;100.00
40954;BME280;26686;50.130;8.710;2024-02-04T08:14:58;100936.78;;;10.21;100.00
40954;BME280;26686;50.130;8.710;2024-02-04T08:19:59;100924.97;;;10.25;100.00
40954;BME280;26686;50.130;8.710;2024-02-04T08:25:01;100936.25;;;10.29;100.00
40954;BME280;26686;50.130;8.710;2024-02-04T08:30:04;100916.03;;;10.26;100.00
40954;BME280;26686;50.130;8.710;2024-02-04T08:35:06;100927.22;;;10.32;100.00
40954;BME280;26686;50.130;8.710;2024-02-04T08:40:08;100920.06;;;10.32;100.00
40954;BME280;26686;50.130;8.710;2024-02-04T08:45:11;100917.88;;;10.39;100.00
40954;BME280;26686;50.130;8.710;2024-02-04T08:50:13;100925.03;;;10.51;100.00
40954;BME280;26686;50.130;8.710;2024-02-04T08:55:15;100915.44;;;10.61;100.00
40954;BME280;26686;50.130;8.710;2024-02-04T09:00:17;100910.94;;;10.62;100.00
40954;BME280;26686;50.130;8.710;2024-02-04T09:05:19;100917.34;;;10.59;100.00
40954;BME280;26686;50.130;8.710;2024-02-04T09:10:22;100913.28;;;10.67;100.00
40954;BME280;26686;50.130;8.710;2024-02-04T09:15:23;100932.75;;;10.67;100.00
40954;BME280;26686;50.130;8.710;2024-02-04T09:20:24;100925.75;;;10.66;100.00
40954;BME280;26686;50.130;8.710;2024-02-04T09:25:26;100925.88;;;10.65;100.00
40954;BME280;26686;50.130;8.710;2024-02-04T09:30:27;100920.66;;;10.63;100.00
40954;BME280;26686;50.130;8.710;2024-02-04T09:35:29;100901.91;;;10.65;100.00
40954;BME280;26686;50.130;8.710;2024-02-04T09:40:32;100900.31;;;10.75;100.00
40954;BME280;26686;50.130;8.710;2024-02-04T09:45:38;100896.22;;;10.82;100.00
40954;BME280;26686;50.130;8.710;2024-02-04T09:50:40;100903.75;;;10.88;100.00
40954;BME280;26686;50.130;8.710;2024-02-04T09:55:42;100901.00;;;10.90;100.00
40954;BME280;26686;50.130;8.710;2024-02-04T10:00:47;100894.81;;;10.89;100.00
40954;BME280;26686;50.130;8.710;2024-02-04T10:05:48;100921.25;;;10.92;100.00
40954;BME280;26686;50.130;8.710;2024-02-04T10:10:50;100893.00;;;10.90;100.00
40954;BME280;26686;50.130;8.710;2024-02-04T10:15:54;100918.56;;;10.92;99.40
40954;BME280;26686;50.130;8.710;2024-02-04T10:20:58;100890.25;;;10.91;98.92
40954;BME280;26686;50.130;8.710;2024-02-04T10:26:00;100920.69;;;11.00;98.47
40954;BME280;26686;50.130;8.710;2024-02-04T10:31:10;100913.22;;;11.05;98.55
40954;BME280;26686;50.130;8.710;2024-02-04T10:36:14;100898.09;;;11.06;98.39
40954;BME280;26686;50.130;8.710;2024-02-04T10:41:17;100878.25;;;11.10;98.39
40954;BME280;26686;50.130;8.710;2024-02-04T10:46:20;100891.47;;;11.11;99.22
40954;BME280;26686;50.130;8.710;2024-02-04T10:51:25;100884.09;;;11.15;98.00
40954;BME280;26686;50.130;8.710;2024-02-04T10:56:44;100879.75;;;11.14;97.38
40954;BME280;26686;50.130;8.710;2024-02-04T11:01:48;100862.50;;;11.07;98.61
40954;BME280;26686;50.130;8.710;2024-02-04T11:06:51;100869.50;;;11.08;99.55
40954;BME280;26686;50.130;8.710;2024-02-04T11:11:56;100855.19;;;10.98;99.95
40954;BME280;26686;50.130;8.710;2024-02-04T11:28:21;100840.56;;;11.27;97.72
40954;BME280;26686;50.130;8.710;2024-02-04T11:33:23;100836.00;;;11.17;97.89
40954;BME280;26686;50.130;8.710;2024-02-04T11:38:32;100847.34;;;11.07;98.68
40954;BME280;26686;50.130;8.710;2024-02-04T11:43:37;100836.69;;;11.07;100.00
40954;BME280;26686;50.130;8.710;2024-02-04T11:48:42;100856.84;;;11.11;100.00
40954;BME280;26686;50.130;8.710;2024-02-04T11:53:44;100837.22;;;11.12;100.00
40954;BME280;26686;50.130;8.710;2024-02-04T11:58:46;100837.22;;;11.12;100.00
40954;BME280;26686;50.130;8.710;2024-02-04T12:03:50;100840.97;;;11.10;100.00
40954;BME280;26686;50.130;8.710;2024-02-04T12:08:52;100811.66;;;11.10;100.00
40954;BME280;26686;50.130;8.710;2024-02-04T12:13:55;100821.75;;;11.18;100.00
40954;BME280;26686;50.130;8.710;2024-02-04T12:18:57;100818.59;;;11.48;99.84
40954;BME280;26686;50.130;8.710;2024-02-04T12:23:59;100809.63;;;11.49;97.63
40954;BME280;26686;50.130;8.710;2024-02-04T12:29:00;100798.78;;;11.63;97.49
40954;BME280;26686;50.130;8.710;2024-02-04T12:34:02;100806.31;;;11.70;96.19
40954;BME280;26686;50.130;8.710;2024-02-04T12:39:04;100796.06;;;11.52;97.64
40954;BME280;26686;50.130;8.710;2024-02-04T12:44:08;100805.31;;;11.59;97.59
40954;BME280;26686;50.130;8.710;2024-02-04T12:49:16;100793.34;;;11.76;97.56
40954;BME280;26686;50.130;8.710;2024-02-04T12:54:21;100800.00;;;11.71;95.72
40954;BME280;26686;50.130;8.710;2024-02-04T13:04:40;100791.59;;;11.53;96.85
40954;BME280;26686;50.130;8.710;2024-02-04T13:09:43;100784.06;;;11.46;98.67
40954;BME280;26686;50.130;8.710;2024-02-04T13:14:45;100784.91;;;11.47;98.91
40954;BME280;26686;50.130;8.710;2024-02-04T13:19:48;100770.22;;;11.41;98.74
40954;BME280;26686;50.130;8.710;2024-02-04T13:24:50;100774.47;;;11.44;99.79
40954;BME280;26686;50.130;8.710;2024-02-04T13:29:51;100779.59;;;11.47;99.50
40954;BME280;26686;50.130;8.710;2024-02-04T13:34:52;100766.88;;;11.50;99.92
40954;BME280;26686;50.130;8.710;2024-02-04T13:40:10;100758.03;;;11.61;97.55
40954;BME280;26686;50.130;8.710;2024-02-04T13:45:12;100768.25;;;11.79;97.44
40954;BME280;26686;50.130;8.710;2024-02-04T13:50:19;100770.19;;;11.77;97.33
40954;BME280;26686;50.130;8.710;2024-02-04T13:55:21;100783.97;;;11.59;98.15
40954;BME280;26686;50.130;8.710;2024-02-04T14:00:25;100787.59;;;11.58;98.35
40954;BME280;26686;50.130;8.710;2024-02-04T14:05:26;100778.72;;;11.46;100.00
40954;BME280;26686;50.130;8.710;2024-02-04T14:10:28;100768.75;;;11.37;100.00
40954;BME280;26686;50.130;8.710;2024-02-04T14:15:30;100770.06;;;11.31;100.00
40954;BME280;26686;50.130;8.710;2024-02-04T14:20:32;100753.94;;;11.22;100.00
40954;BME280;26686;50.130;8.710;2024-02-04T14:25:35;100760.38;;;11.30;100.00
40954;BME280;26686;50.130;8.710;2024-02-04T14:30:37;100775.03;;;11.36;100.00
40954;BME280;26686;50.130;8.710;2024-02-04T14:35:39;100770.84;;;11.45;100.00
40954;BME280;26686;50.130;8.710;2024-02-04T14:40:41;100764.97;;;11.28;100.00
40954;BME280;26686;50.130;8.710;2024-02-04T14:45:43;100775.16;;;11.35;100.00
40954;BME280;26686;50.130;8.710;2024-02-04T14:50:47;100787.31;;;11.39;100.00
40954;BME280;26686;50.130;8.710;2024-02-04T14:55:49;100768.53;;;11.40;99.47
40954;BME280;26686;50.130;8.710;2024-02-04T15:00:54;100769.13;;;11.44;99.09
40954;BME280;26686;50.130;8.710;2024-02-04T15:05:56;100769.13;;;11.44;99.85
40954;BME280;26686;50.130;8.710;2024-02-04T15:10:57;100762.59;;;11.48;98.77
40954;BME280;26686;50.130;8.710;2024-02-04T15:16:00;100775.22;;;11.46;99.27
40954;BME280;26686;50.130;8.710;2024-02-04T15:21:02;100784.63;;;11.39;99.43
40954;BME280;26686;50.130;8.710;2024-02-04T15:26:07;100782.69;;;11.41;98.97
40954;BME280;26686;50.130;8.710;2024-02-04T15:31:13;100777.03;;;11.45;98.58
40954;BME280;26686;50.130;8.710;2024-02-04T15:36:15;100768.94;;;11.47;98.34
40954;BME280;26686;50.130;8.710;2024-02-04T15:41:20;100770.59;;;11.48;99.16
40954;BME280;26686;50.130;8.710;2024-02-04T15:46:23;100775.44;;;11.43;99.75
40954;BME280;26686;50.130;8.710;2024-02-04T15:51:25;100751.06;;;11.36;99.82
40954;BME280;26686;50.130;8.710;2024-02-04T15:56:31;100699.53;;;11.13;98.76
40954;BME280;26686;50.130;8.710;2024-02-04T16:01:34;100734.22;;;11.36;98.90
40954;BME280;26686;50.130;8.710;2024-02-04T16:06:37;100745.38;;;11.41;98.95
40954;BME280;26686;50.130;8.710;2024-02-04T16:11:52;100732.75;;;11.31;98.96
40954;BME280;26686;50.130;8.710;2024-02-04T16:17:03;100745.13;;;11.32;99.09
40954;BME280;26686;50.130;8.710;2024-02-04T16:22:05;100769.84;;;11.35;98.89
40954;BME280;26686;50.130;8.710;2024-02-04T16:27:07;100770.59;;;11.37;99.16
40954;BME280;26686;50.130;8.710;2024-02-04T16:32:09;100781.38;;;11.35;98.79
40954;BME280;26686;50.130;8.710;2024-02-04T16:37:12;100752.16;;;11.34;99.12
40954;BME280;26686;50.130;8.710;2024-02-04T16:42:15;100759.16;;;11.35;99.50
40954;BME280;26686;50.130;8.710;2024-02-04T16:47:18;100768.16;;;11.34;100.00
40954;BME280;26686;50.130;8.710;2024-02-04T16:52:20;100760.03;;;11.35;100.00
40954;BME280;26686;50.130;8.710;2024-02-04T16:57:21;100758.16;;;11.24;100.00
40954;BME280;26686;50.130;8.710;2024-02-04T17:02:27;100762.31;;;11.28;100.00
40954;BME280;26686;50.130;8.710;2024-02-04T17:07:29;100760.09;;;11.22;100.00
40954;BME280;26686;50.130;8.710;2024-02-04T17:12:32;100748.84;;;11.19;100.00
40954;BME280;26686;50.130;8.710;2024-02-04T17:17:35;100751.09;;;11.12;100.00
40954;BME280;26686;50.130;8.710;2024-02-04T17:22:38;100754.00;;;11.09;100.00
40954;BME280;26686;50.130;8.710;2024-02-04T17:27:42;100760.06;;;11.11;100.00
40954;BME280;26686;50.130;8.710;2024-02-04T17:32:45;100745.28;;;11.07;99.89
40954;BME280;26686;50.130;8.710;2024-02-04T17:37:49;100748.06;;;11.05;99.32
40954;BME280;26686;50.130;8.710;2024-02-04T17:42:53;100745.53;;;11.15;98.78
40954;BME280;26686;50.130;8.710;2024-02-04T17:47:58;100755.47;;;11.13;98.65
40954;BME280;26686;50.130;8.710;2024-02-04T17:52:59;100736.94;;;11.11;98.56
40954;BME280;26686;50.130;8.710;2024-02-04T17:58:02;100724.69;;;11.09;99.11
40954;BME280;26686;50.130;8.710;2024-02-04T18:03:05;100731.44;;;11.02;99.69
40954;BME280;26686;50.130;8.710;2024-02-04T18:08:07;100734.31;;;10.99;99.43
40954;BME280;26686;50.130;8.710;2024-02-04T18:13:09;100735.09;;;11.01;99.29
40954;BME280;26686;50.130;8.710;2024-02-04T18:18:11;100722.59;;;11.01;98.93
40954;BME280;26686;50.130;8.710;2024-02-04T18:23:13;100712.75;;;10.90;98.52
40954;BME280;26686;50.130;8.710;2024-02-04T18:28:18;100721.75;;;11.01;98.70
40954;BME280;26686;50.130;8.710;2024-02-04T18:33:21;100719.09;;;11.01;98.42
40954;BME280;26686;50.130;8.710;2024-02-04T18:38:22;100715.56;;;11.00;98.16
40954;BME280;26686;50.130;8.710;2024-02-04T18:43:24;100727.81;;;11.03;97.92
40954;BME280;26686;50.130;8.710;2024-02-04T18:48:25;100714.50;;;11.03;97.36
40954;BME280;26686;50.130;8.710;2024-02-04T18:53:30;100725.75;;;11.06;97.17
40954;BME280;26686;50.130;8.710;2024-02-04T18:58:32;100709.88;;;11.05;97.04
40954;BME280;26686;50.130;8.710;2024-02-04T19:03:35;100693.31;;;11.01;97.46
40954;BME280;26686;50.130;8.710;2024-02-04T19:08:37;100695.84;;;11.03;97.82
40954;BME280;26686;50.130;8.710;2024-02-04T19:13:38;100709.50;;;10.98;98.11
40954;BME280;26686;50.130;8.710;2024-02-04T19:18:40;100701.41;;;11.00;97.34
40954;BME280;26686;50.130;8.710;2024-02-04T19:23:41;100701.53;;;10.98;96.72
40954;BME280;26686;50.130;8.710;2024-02-04T19:28:43;100698.25;;;10.94;96.05
40954;BME280;26686;50.130;8.710;2024-02-04T19:33:46;100695.47;;;10.96;95.80
40954;BME280;26686;50.130;8.710;2024-02-04T19:38:48;100706.97;;;10.96;95.01
40954;BME280;26686;50.130;8.710;2024-02-04T19:43:49;100691.72;;;10.99;94.68
40954;BME280;26686;50.130;8.710;2024-02-04T19:48:52;100683.56;;;10.89;94.33
40954;BME280;26686;50.130;8.710;2024-02-04T19:53:53;100699.94;;;10.95;93.37
40954;BME280;26686;50.130;8.710;2024-02-04T19:58:57;100706.97;;;10.96;93.17
40954;BME280;26686;50.130;8.710;2024-02-04T20:04:05;100706.97;;;10.96;93.04
40954;BME280;26686;50.130;8.710;2024-02-04T20:09:07;100708.78;;;10.96;92.90
40954;BME280;26686;50.130;8.710;2024-02-04T20:14:08;100715.22;;;11.05;92.49
40954;BME280;26686;50.130;8.710;2024-02-04T20:19:10;100710.34;;;10.99;92.02
40954;BME280;26686;50.130;8.710;2024-02-04T20:24:11;100711.22;;;10.99;92.29
40954;BME280;26686;50.130;8.710;2024-02-04T20:29:14;100719.34;;;10.98;92.32
40954;BME280;26686;50.130;8.710;2024-02-04T20:34:16;100719.16;;;10.88;92.59
40954;BME280;26686;50.130;8.710;2024-02-04T20:39:19;100713.59;;;10.91;92.53
40954;BME280;26686;50.130;8.710;2024-02-04T20:44:21;100719.78;;;10.91;91.74
40954;BME280;26686;50.130;8.710;2024-02-04T20:49:22;100719.56;;;10.94;92.24
40954;BME280;26686;50.130;8.710;2024-02-04T20:54:24;100722.00;;;10.98;92.01
40954;BME280;26686;50.130;8.710;2024-02-04T20:59:28;100737.22;;;10.95;91.36
40954;BME280;26686;50.130;8.710;2024-02-04T21:04:30;100733.84;;;10.93;92.15
40954;BME280;26686;50.130;8.710;2024-02-04T21:09:37;100729.00;;;10.99;91.68
40954;BME280;26686;50.130;8.710;2024-02-04T21:14:39;100761.84;;;10.99;91.37
40954;BME280;26686;50.130;8.710;2024-02-04T21:19:43;100759.28;;;10.98;91.61
40954;BME280;26686;50.130;8.710;2024-02-04T21:24:46;100754.00;;;11.09;92.84
40954;BME280;26686;50.130;8.710;2024-02-04T21:29:50;100742.16;;;11.13;91.87
40954;BME280;26686;50.130;8.710;2024-02-04T21:34:51;100738.88;;;11.09;91.05
40954;BME280;26686;50.130;8.710;2024-02-04T21:39:53;100738.34;;;11.04;91.14
40954;BME280;26686;50.130;8.710;2024-02-04T21:44:55;100739.31;;;11.03;91.27
40954;BME280;26686;50.130;8.710;2024-02-04T21:49:56;100737.50;;;11.04;91.72
40954;BME280;26686;50.130;8.710;2024-02-04T21:55:02;100731.31;;;11.03;91.63
40954;BME280;26686;50.130;8.710;2024-02-04T22:00:06;100731.44;;;11.02;91.73
40954;BME280;26686;50.130;8.710;2024-02-04T22:05:09;100715.41;;;10.90;91.56
40954;BME280;26686;50.130;8.710;2024-02-04T22:10:11;100716.13;;;10.92;92.23
40954;BME280;26686;50.130;8.710;2024-02-04T22:15:12;100709.97;;;10.92;92.43
40954;BME280;26686;50.130;8.710;2024-02-04T22:20:14;100700.63;;;10.86;92.82
40954;BME280;26686;50.130;8.710;2024-02-04T22:25:16;100696.13;;;10.87;92.78
40954;BME280;26686;50.130;8.710;2024-02-04T22:30:27;100690.19;;;10.83;93.20
40954;BME280;26686;50.130;8.710;2024-02-04T22:35:28;100684.66;;;10.86;93.22
40954;BME280;26686;50.130;8.710;2024-02-04T22:40:30;100702.03;;;10.79;93.64
40954;BME280;26686;50.130;8.710;2024-02-04T22:45:31;100691.28;;;10.81;93.92
40954;BME280;26686;50.130;8.710;2024-02-04T22:50:34;100691.38;;;10.79;93.74
40954;BME280;26686;50.130;8.710;2024-02-04T22:55:39;100697.47;;;10.81;93.95
40954;BME280;26686;50.130;8.710;2024-02-04T23:00:40;100698.75;;;10.75;94.12
40954;BME280;26686;50.130;8.710;2024-02-04T23:05:42;100690.91;;;10.74;94.29
40954;BME280;26686;50.130;8.710;2024-02-04T23:10:44;100678.53;;;10.73;94.65
40954;BME280;26686;50.130;8.710;2024-02-04T23:15:46;100687.09;;;10.65;95.00
40954;BME280;26686;50.130;8.710;2024-02-04T23:20:50;100670.50;;;10.61;95.12
40954;BME280;26686;50.130;8.710;2024-02-04T23:25:51;100693.38;;;10.64;96.03
40954;BME280;26686;50.130;8.710;2024-02-04T23:30:55;100690.44;;;10.56;98.39
40954;BME280;26686;50.130;8.710;2024-02-04T23:35:56;100694.06;;;10.55;99.81
40954;BME280;26686;50.130;8.710;2024-02-04T23:40:58;100692.03;;;10.58;99.30
40954;BME280;26686;50.130;8.710;2024-02-04T23:45:59;100692.56;;;10.51;100.00
40954;BME280;26686;50.130;8.710;2024-02-04T23:51:01;100679.81;;;10.43;100.00
40954;BME280;26686;50.130;8.710;2024-02-04T23:56:03;100680.59;;;10.32;100.00
